Time;durP1;ratioP1;P1;durP2;ratioP2;P2;SDS_P1;SDS_P2;PMS_P1;PMS_P2;Temp;Humidity;BMP_temperature;BMP_pressure;BME280_temperature;BME280_humidity;BME280_pressure;Samples;Min_cycle;Max_cycle;Signal;HPM_P1;HPM_P2
2021/12/29 09:44:51;;;;;;;25.85;12.85;;;;;;;6.11;84.36;99053.09;5046575;27;106540;-62
2021/12/29 09:47:17;;;;;;;22.33;12.68;;;;;;;6.67;82.10;99047.75;5045058;27;106241;-62
2021/12/29 09:49:43;;;;;;;23.65;14.10;;;;;;;7.06;81.12;99046.84;5044405;27;106282;-65
2021/12/29 09:52:08;;;;;;;25.58;16.08;;;;;;;7.08;79.76;99050.16;5044170;27;106090;-65
2021/12/29 09:54:33;;;;;;;28.67;16.02;;;;;;;6.86;78.17;99050.97;5044073;27;106284;-65
2021/12/29 09:57:00;;;;;;;34.72;20.17;;;;;;;6.62;78.05;99052.75;5044765;27;105916;-65
2021/12/29 09:59:26;;;;;;;53.13;34.08;;;;;;;6.46;78.11;99061.56;5044361;27;106342;-64
2021/12/29 10:01:51;;;;;;;41.15;27.85;;;;;;;6.24;77.68;99055.19;5043568;27;106728;-65
2021/12/29 10:04:16;;;;;;;33.95;21.40;;;;;;;6.17;78.16;99062.16;5044333;27;105912;-65
2021/12/29 10:06:42;;;;;;;31.05;17.50;;;;;;;6.20;78.78;99067.91;5044802;27;105792;-65
2021/12/29 10:09:25;;;;;;;31.27;18.23;;;;;;;6.25;78.84;99064.78;5044753;27;105752;-64
2021/12/29 10:11:53;;;;;;;28.63;18.00;;;;;;;6.37;78.73;99062.56;5044192;27;106111;-65
2021/12/29 10:14:18;;;;;;;30.70;18.25;;;;;;;6.48;79.18;99058.75;5044127;27;106486;-64
2021/12/29 10:16:49;;;;;;;36.22;22.10;;;;;;;6.51;78.81;99066.34;5044980;27;106311;-64
2021/12/29 10:19:15;;;;;;;;;;;;;;;6.48;78.18;99070.16;5045056;27;105846;-65
2021/12/29 10:21:44;;;;;;;33.17;20.73;;;;;;;6.44;77.88;99074.97;5045082;27;106714;-66
2021/12/29 10:24:10;;;;;;;28.58;20.10;;;;;;;6.36;78.39;99072.34;5043755;27;105976;-68
2021/12/29 10:26:38;;;;;;;33.30;20.92;;;;;;;6.28;77.77;99080.31;5044732;27;106048;-67
2021/12/29 10:29:08;;;;;;;23.58;15.23;;;;;;;6.07;77.01;99073.75;5044223;27;106008;-66
2021/12/29 10:31:39;;;;;;;26.48;14.63;;;;;;;5.97;77.50;99078.34;5043747;27;107136;-67
2021/12/29 10:34:12;;;;;;;22.30;14.23;;;;;;;5.88;77.35;99089.94;5043562;27;105990;-65
2021/12/29 10:36:43;;;;;;;28.27;14.13;;;;;;;5.67;76.83;99088.66;5044589;27;105858;-66
2021/12/29 10:39:14;;;;;;;27.45;14.15;;;;;;;5.53;77.29;99087.47;5043846;27;105740;-66
2021/12/29 10:41:46;;;;;;;22.88;14.20;;;;;;;5.50;77.73;99100.19;5043732;27;106568;-67
2021/12/29 10:44:13;;;;;;;58.38;34.70;;;;;;;5.48;78.32;99095.09;5042681;27;105949;-67
2021/12/29 10:46:38;;;;;;;35.50;22.08;;;;;;;5.41;77.50;99102.84;5044301;27;106064;-65
2021/12/29 10:49:07;;;;;;;38.08;21.60;;;;;;;5.28;77.65;99107.75;5044040;27;106229;-66
2021/12/29 10:51:36;;;;;;;38.45;21.33;;;;;;;5.16;77.58;99111.69;5043461;27;106068;-66
2021/12/29 10:54:20;;;;;;;45.63;21.20;;;;;;;5.03;78.10;99102.44;5042572;27;105986;-65
2021/12/29 10:56:57;;;;;;;37.55;20.85;;;;;;;4.93;78.07;99117.56;5030967;27;106356;-64
2021/12/29 10:59:28;;;;;;;41.58;20.73;;;;;;;4.86;78.10;99121.84;5030475;27;105889;-65
2021/12/29 11:01:54;;;;;;;42.03;20.70;;;;;;;4.77;78.22;99120.16;5029643;27;106910;-65
2021/12/29 11:04:22;;;;;;;42.42;21.80;;;;;;;4.67;78.32;99123.72;5029718;28;105799;-64
2021/12/29 11:06:49;;;;;;;45.92;21.55;;;;;;;4.57;78.10;99117.75;5030270;28;106058;-65
2021/12/29 11:09:33;;;;;;;47.60;22.85;;;;;;;4.50;78.18;99122.03;5030434;27;106232;-64
2021/12/29 11:12:00;;;;;;;38.47;20.92;;;;;;;4.42;78.29;99128.06;5029853;27;106629;-64
2021/12/29 11:14:27;;;;;;;46.85;22.05;;;;;;;4.37;78.36;99133.81;5029484;27;106028;-64
2021/12/29 11:17:02;;;;;;;40.45;21.67;;;;;;;4.36;78.78;99131.31;5029667;27;106495;-65
2021/12/29 11:19:28;;;;;;;42.65;19.35;;;;;;;4.44;78.98;99133.19;5028370;28;105938;-67
2021/12/29 11:22:11;;;;;;;36.53;20.50;;;;;;;4.48;78.94;99143.25;5029847;27;105940;-67
2021/12/29 11:24:37;;;;;;;33.17;18.73;;;;;;;4.48;79.02;99137.16;5030005;27;106354;-65
2021/12/29 11:27:15;;;;;;;34.25;17.35;;;;;;;4.49;79.01;99134.38;5030501;27;105767;-65
2021/12/29 11:29:58;;;;;;;29.33;18.10;;;;;;;4.47;78.91;99140.78;5030158;27;105835;-65
2021/12/29 11:32:33;;;;;;;37.42;17.75;;;;;;;4.48;79.03;99142.44;5029564;27;105971;-65
2021/12/29 11:35:03;;;;;;;35.13;18.98;;;;;;;4.48;78.84;99134.53;5029521;27;105830;-65
2021/12/29 11:37:29;;;;;;;42.25;20.25;;;;;;;4.45;78.93;99148.03;5029603;27;106184;-65
2021/12/29 11:39:55;;;;;;;44.58;20.27;;;;;;;4.42;78.99;99145.72;5029651;27;106226;-65
2021/12/29 11:42:21;;;;;;;39.00;20.95;;;;;;;4.43;78.74;99147.34;5028906;27;105924;-64
2021/12/29 11:44:46;;;;;;;37.38;20.63;;;;;;;4.48;79.07;99140.63;5028054;27;106206;-64
2021/12/29 11:47:12;;;;;;;39.13;20.02;;;;;;;4.56;79.11;99137.19;5029580;27;105970;-64
2021/12/29 11:49:38;;;;;;;38.25;19.50;;;;;;;4.62;79.21;99152.41;5028811;27;105896;-65
2021/12/29 11:52:14;;;;;;;31.08;18.90;;;;;;;4.67;79.35;99136.09;5029215;28;107395;-63
2021/12/29 11:55:05;;;;;;;31.10;18.77;;;;;;;4.63;78.10;99148.78;5029266;27;105925;-64
2021/12/29 11:57:32;;;;;;;33.25;18.23;;;;;;;4.57;78.54;99155.50;5029447;27;106407;-64
2021/12/29 12:00:18;;;;;;;37.13;18.30;;;;;;;4.52;78.76;99155.16;5029082;27;106152;-64
2021/12/29 12:02:46;;;;;;;29.95;16.92;;;;;;;4.49;78.93;99160.75;5028663;28;106177;-64
2021/12/29 12:05:17;;;;;;;36.75;18.80;;;;;;;4.51;78.62;99169.34;5029300;27;106113;-67
2021/12/29 12:07:43;;;;;;;35.90;19.02;;;;;;;4.53;79.05;99161.25;5028922;27;105999;-64
2021/12/29 12:10:12;;;;;;;33.25;19.08;;;;;;;4.49;78.55;99162.56;5029400;28;106249;-64
2021/12/29 12:12:44;;;;;;;37.15;18.42;;;;;;;4.47;78.59;99161.88;5028713;27;105862;-64
2021/12/29 12:15:12;;;;;;;36.90;19.38;;;;;;;4.46;78.53;99162.88;5029229;27;105796;-64
2021/12/29 12:17:38;;;;;;;32.35;18.63;;;;;;;4.51;79.15;99165.84;5029312;28;106022;-64
2021/12/29 12:20:03;;;;;;;39.13;20.85;;;;;;;4.56;79.09;99163.59;5029021;27;106223;-64
2021/12/29 12:22:39;;;;;;;37.10;20.42;;;;;;;4.58;78.73;99167.72;5028346;28;107094;-63
2021/12/29 12:25:06;;;;;;;37.30;20.23;;;;;;;4.63;79.26;99156.69;5028739;27;106059;-64
2021/12/29 12:27:44;;;;;;;34.83;18.98;;;;;;;4.74;79.27;99160.88;5028825;27;105853;-64
2021/12/29 12:30:13;;;;;;;36.58;20.60;;;;;;;4.84;78.90;99158.09;5028700;27;106280;-64
2021/12/29 12:32:54;;;;;;;36.45;21.15;;;;;;;4.97;79.30;99158.50;5027947;28;106051;-63
2021/12/29 12:35:34;;;;;;;42.55;22.17;;;;;;;5.18;79.28;99160.72;5028336;27;105705;-63
2021/12/29 12:38:22;;;;;;;37.90;22.40;;;;;;;5.46;79.49;99170.19;5029246;27;106241;-64
2021/12/29 12:40:59;;;;;;;41.70;23.40;;;;;;;5.79;79.18;99173.69;5028464;27;106254;-65
2021/12/29 12:43:24;;;;;;;48.72;24.27;;;;;;;6.09;78.44;99174.06;5028247;27;106284;-64
2021/12/29 12:45:53;;;;;;;39.88;22.48;;;;;;;6.37;78.82;99169.25;5028710;28;105825;-64
2021/12/29 12:48:22;;;;;;;40.75;22.48;;;;;;;6.67;78.40;99169.50;5028936;27;106421;-65
2021/12/29 12:50:48;;;;;;;42.03;22.60;;;;;;;7.51;79.62;99176.06;5028742;27;105962;-64
2021/12/29 12:53:16;;;;;;;41.30;22.52;;;;;;;8.74;79.23;99175.03;5028324;28;106162;-65
2021/12/29 12:55:56;;;;;;;43.55;24.00;;;;;;;10.24;78.52;99177.25;5028128;27;105814;-65
2021/12/29 12:58:22;;;;;;;38.60;23.00;;;;;;;10.79;76.54;99169.44;5028684;27;106230;-66
2021/12/29 13:00:53;;;;;;;43.60;24.35;;;;;;;12.54;77.99;99182.13;5028203;28;106145;-64
2021/12/29 13:03:22;;;;;;;44.75;24.92;;;;;;;15.38;75.19;99173.56;5027234;27;106812;-64
2021/12/29 13:05:52;;;;;;;46.33;25.42;;;;;;;17.56;72.79;99187.22;5027507;27;105944;-63
2021/12/29 13:08:36;;;;;;;52.95;27.42;;;;;;;19.17;68.29;99194.03;5028634;28;105905;-64
2021/12/29 13:11:11;;;;;;;58.45;29.15;;;;;;;20.33;64.15;99193.06;5027886;28;106026;-65
2021/12/29 13:13:39;;;;;;;46.83;27.15;;;;;;;21.38;61.83;99205.84;5027917;27;106927;-62
2021/12/29 13:16:06;;;;;;;55.42;28.48;;;;;;;22.27;59.17;99213.84;5027543;27;105894;-65
2021/12/29 13:18:32;;;;;;;59.25;31.23;;;;;;;22.42;54.03;99209.56;5026720;27;105975;-66
2021/12/29 13:21:02;;;;;;;55.40;31.38;;;;;;;21.56;53.58;99220.81;5022535;27;105894;-65
2021/12/29 13:23:28;;;;;;;46.00;26.23;;;;;;;18.89;51.95;99222.00;5020603;27;106693;-66
2021/12/29 13:25:56;;;;;;;53.15;28.58;;;;;;;16.60;52.59;99232.53;5020147;27;106088;-66
2021/12/29 13:28:22;;;;;;;50.20;29.58;;;;;;;14.82;54.98;99227.22;5020979;28;106075;-65
2021/12/29 13:31:14;;;;;;;52.70;30.42;;;;;;;13.38;56.52;99233.13;5022232;28;106199;-65
2021/12/29 13:33:48;;;;;;;53.05;28.42;;;;;;;13.33;59.92;99236.44;5025428;28;106094;-65
2021/12/29 13:36:16;;;;;;;57.25;31.08;;;;;;;13.34;58.70;99234.56;5024352;27;106192;-65
2021/12/29 13:38:43;;;;;;;58.75;31.95;;;;;;;12.59;59.16;99234.94;5017145;27;105941;-65
2021/12/29 13:41:20;;;;;;;57.05;32.55;;;;;;;12.17;60.34;99235.97;5017427;28;106153;-64
2021/12/29 13:43:48;;;;;;;59.47;32.38;;;;;;;13.97;62.87;99241.06;5016936;28;106097;-65
2021/12/29 13:46:20;;;;;;;55.67;31.95;;;;;;;16.32;62.10;99234.00;5025025;28;106248;-66
2021/12/29 13:48:48;;;;;;;58.50;32.40;;;;;;;18.00;58.50;99234.34;5027890;28;105822;-67
2021/12/29 13:51:17;;;;;;;60.67;30.33;;;;;;;18.91;55.20;99244.97;5025014;27;106682;-67
2021/12/29 13:53:51;;;;;;;51.83;29.65;;;;;;;18.38;51.57;99249.00;5024125;27;106586;-67
2021/12/29 13:56:26;;;;;;;51.67;29.58;;;;;;;16.53;50.49;99244.19;5022835;28;107331;-67
2021/12/29 13:59:03;;;;;;;49.90;27.17;;;;;;;16.28;52.18;99252.47;5025518;28;106604;-66
2021/12/29 14:01:30;;;;;;;46.40;28.42;;;;;;;14.70;51.83;99247.78;5024619;27;106168;-66
2021/12/29 14:03:57;;;;;;;47.80;28.77;;;;;;;13.28;52.59;99251.47;5025394;27;106311;-66
2021/12/29 14:06:24;;;;;;;46.67;27.52;;;;;;;12.15;53.97;99259.41;5025525;28;106970;-67
2021/12/29 14:08:50;;;;;;;53.13;28.70;;;;;;;11.12;54.53;99265.56;5026808;27;106037;-67
2021/12/29 14:11:16;;;;;;;57.33;30.00;;;;;;;10.23;55.94;99272.25;5027153;28;106218;-66
2021/12/29 14:13:45;;;;;;;50.00;29.25;;;;;;;9.55;56.69;99283.16;5026968;27;106463;-66
2021/12/29 14:16:16;;;;;;;53.58;28.52;;;;;;;8.88;57.63;99284.91;5026635;27;106500;-66
2021/12/29 14:18:51;;;;;;;50.88;27.77;;;;;;;8.36;58.64;99286.50;5027663;27;105953;-66
2021/12/29 14:21:21;;;;;;;47.38;26.10;;;;;;;7.92;59.86;99290.63;5026942;27;106028;-66
2021/12/29 14:23:53;;;;;;;50.60;27.50;;;;;;;7.60;60.58;99297.78;5026754;27;105760;-66
2021/12/29 14:26:19;;;;;;;48.17;27.58;;;;;;;7.43;61.40;99298.84;5024600;27;106214;-66
2021/12/29 14:28:55;;;;;;;51.42;27.73;;;;;;;7.26;61.80;99298.06;5027055;27;106166;-67
2021/12/29 14:33:43;;;;;;;58.45;29.50;;;;;;;6.87;62.40;99302.28;5026156;28;105727;-67
2021/12/29 14:36:11;;;;;;;53.97;29.05;;;;;;;6.60;62.36;99300.81;5025020;27;105854;-66
2021/12/29 14:38:37;;;;;;;55.63;29.30;;;;;;;6.42;62.77;99301.84;5024798;27;106113;-67
2021/12/29 14:41:04;;;;;;;51.45;27.25;;;;;;;6.23;63.45;99302.16;5024588;28;105902;-66
2021/12/29 14:43:30;;;;;;;48.78;27.15;;;;;;;6.03;63.64;99302.47;5023922;27;106042;-65
2021/12/29 14:46:00;;;;;;;54.13;29.13;;;;;;;5.89;64.15;99321.56;5024410;27;105921;-65
2021/12/29 14:48:27;;;;;;;50.20;28.95;;;;;;;5.78;64.59;99327.97;5025390;27;105957;-65
2021/12/29 14:50:53;;;;;;;58.13;29.90;;;;;;;5.68;65.02;99322.00;5024776;27;106143;-63
2021/12/29 14:53:24;;;;;;;61.08;28.83;;;;;;;5.54;65.08;99326.06;5040160;27;107973;-63
2021/12/29 14:55:51;;;;;;;56.72;28.00;;;;;;;5.40;65.56;99327.50;5030245;27;106210;-63
2021/12/29 14:58:19;;;;;;;54.88;28.40;;;;;;;5.28;65.71;99329.59;5034779;27;106268;-63
2021/12/29 15:00:47;;;;;;;59.53;30.08;;;;;;;5.20;66.08;99340.09;5037168;27;105785;-62
2021/12/29 15:03:15;;;;;;;55.97;29.17;;;;;;;5.08;65.81;99337.72;5026835;27;106169;-62
2021/12/29 15:05:46;;;;;;;57.03;30.42;;;;;;;4.92;66.07;99332.31;5040012;27;105918;-63
2021/12/29 15:08:17;;;;;;;55.30;28.33;;;;;;;4.73;66.46;99339.47;5032918;27;105934;-62
2021/12/29 15:10:44;;;;;;;53.10;28.13;;;;;;;4.54;66.51;99342.28;5030790;27;106499;-62
2021/12/29 15:13:12;;;;;;;48.55;27.13;;;;;;;4.42;66.75;99351.41;5039929;27;106002;-63
2021/12/29 15:15:39;;;;;;;47.97;25.88;;;;;;;4.29;67.36;99351.78;5027665;27;106079;-65
2021/12/29 15:18:10;;;;;;;51.90;26.23;;;;;;;4.13;66.94;99360.34;5036264;27;105833;-65
2021/12/29 15:20:38;;;;;;;47.78;27.77;;;;;;;3.98;67.64;99368.78;5034329;27;106345;-65
2021/12/29 15:23:07;;;;;;;54.30;25.02;;;;;;;3.92;68.45;99371.16;5027438;27;106143;-65
2021/12/29 15:25:33;;;;;;;49.88;25.10;;;;;;;3.88;68.49;99365.34;5040492;27;106089;-65
2021/12/29 15:28:02;;;;;;;51.75;26.30;;;;;;;3.83;68.41;99367.63;5030742;27;105884;-67
2021/12/29 15:30:31;;;;;;;55.50;26.33;;;;;;;3.76;68.98;99371.78;5032301;27;105967;-66
2021/12/29 15:32:57;;;;;;;53.40;27.88;;;;;;;3.70;69.13;99371.41;5037367;27;105882;-65
2021/12/29 15:35:23;;;;;;;52.25;27.95;;;;;;;3.65;69.03;99378.06;5027092;27;105900;-66
2021/12/29 15:37:48;;;;;;;52.75;28.35;;;;;;;3.58;68.73;99387.53;5036007;27;106214;-65
2021/12/29 15:40:16;;;;;;;52.72;26.60;;;;;;;3.55;69.49;99389.50;5032041;27;105822;-66
2021/12/29 15:42:41;;;;;;;49.58;23.30;;;;;;;3.54;69.54;99393.09;5029814;27;105991;-66
2021/12/29 15:45:10;;;;;;;51.42;25.60;;;;;;;3.54;69.80;99393.09;5025467;28;106035;-66
2021/12/29 15:47:36;;;;;;;52.78;28.08;;;;;;;3.52;70.19;99386.31;4997447;28;106356;-64
2021/12/29 15:50:04;;;;;;;61.13;29.65;;;;;;;3.50;70.04;99388.25;5022445;27;106565;-64
2021/12/29 15:52:29;;;;;;;60.08;27.42;;;;;;;3.47;70.20;99399.09;5020424;28;105846;-64
2021/12/29 15:54:55;;;;;;;49.08;25.23;;;;;;;3.43;69.59;99397.72;5008934;28;106034;-65
2021/12/29 15:57:21;;;;;;;51.92;26.27;;;;;;;3.37;70.18;99397.31;5024950;28;106279;-63
2021/12/29 15:59:47;;;;;;;48.17;23.88;;;;;;;3.33;70.04;99398.56;5014777;28;105852;-64
2021/12/29 16:02:12;;;;;;;41.00;19.92;;;;;;;3.33;70.68;99409.09;5020886;28;105978;-64
2021/12/29 16:04:38;;;;;;;41.13;20.83;;;;;;;3.32;70.89;99406.59;5020871;28;106129;-64
2021/12/29 16:07:04;;;;;;;38.28;19.75;;;;;;;3.28;70.82;99407.88;5006082;27;106212;-64
2021/12/29 16:09:30;;;;;;;35.30;18.85;;;;;;;3.24;70.75;99409.13;4998146;28;106029;-62
2021/12/29 16:35:31;;;;;;;27.58;15.18;;;;;;;2.94;71.91;99427.59;4992556;28;106512;-69
2021/12/29 16:37:57;;;;;;;32.47;16.05;;;;;;;2.94;71.91;99424.97;5005337;28;106350;-66
2021/12/29 17:10:38;;;;;;;38.75;17.92;;;;;;;2.92;72.67;99449.75;4992094;28;105893;-67
2021/12/29 17:13:04;;;;;;;36.15;18.17;;;;;;;2.92;72.98;99453.22;4988654;28;105812;-69
2021/12/29 17:15:29;;;;;;;35.65;17.83;;;;;;;2.94;72.86;99456.56;4988312;28;106423;-66
2021/12/29 17:17:55;;;;;;;33.60;18.25;;;;;;;2.96;72.84;99459.84;4989359;28;106306;-67
2021/12/29 17:20:21;;;;;;;39.05;18.80;;;;;;;2.98;73.08;99463.19;4988388;28;106232;-67
2021/12/29 17:22:47;;;;;;;38.70;19.63;;;;;;;2.99;72.80;99464.88;4988221;28;106021;-66
2021/12/29 17:25:14;;;;;;;44.95;20.95;;;;;;;2.99;73.37;99461.38;4987977;28;106089;-66
2021/12/29 17:27:41;;;;;;;41.45;20.33;;;;;;;3.01;73.27;99468.16;4989138;28;105913;-66
2021/12/29 17:30:09;;;;;;;31.48;18.95;;;;;;;3.02;73.26;99469.84;4988774;28;106128;-66
2021/12/29 17:32:36;;;;;;;43.67;20.25;;;;;;;3.04;73.20;99469.69;4987928;28;105943;-66
2021/12/29 17:35:06;;;;;;;40.15;21.70;;;;;;;3.03;72.81;99471.50;4987847;28;105986;-67
2021/12/29 17:37:32;;;;;;;39.13;19.83;;;;;;;2.98;73.01;99478.97;4988834;28;106110;-66
2021/12/29 17:39:57;;;;;;;36.42;18.02;;;;;;;2.96;73.11;99477.44;4988347;28;106189;-66
2021/12/29 17:42:23;;;;;;;42.17;22.00;;;;;;;2.94;73.17;99474.13;4988092;28;105914;-65
2021/12/29 17:44:48;;;;;;;42.60;19.92;;;;;;;2.93;73.25;99475.09;4988068;28;106484;-64
2021/12/29 17:47:14;;;;;;;38.25;19.23;;;;;;;2.91;73.58;99469.97;4988882;28;106031;-65
2021/12/29 17:49:39;;;;;;;32.55;17.60;;;;;;;2.92;73.83;99473.44;4988086;28;106243;-65
2021/12/29 17:52:05;;;;;;;37.35;16.13;;;;;;;2.90;73.63;99470.94;4988419;28;106139;-65
2021/12/29 17:54:32;;;;;;;29.17;15.50;;;;;;;2.88;73.79;99473.72;4988503;28;106070;-66
2021/12/29 17:56:57;;;;;;;42.55;21.67;;;;;;;2.90;73.79;99481.47;4988014;28;106110;-65
